sensor_id;sensor_type;location;lat;lon;timestamp;temperature;humidity
22996;DHT22;11664;49.774;8.650;2023-05-10T00:00:11;14.60;99.90
22996;DHT22;11664;49.774;8.650;2023-05-10T00:02:37;14.50;99.90
22996;DHT22;11664;49.774;8.650;2023-05-10T00:05:03;14.50;99.90
22996;DHT22;11664;49.774;8.650;2023-05-10T00:07:28;14.50;99.90
22996;DHT22;11664;49.774;8.650;2023-05-10T00:09:54;14.40;99.90
22996;DHT22;11664;49.774;8.650;2023-05-10T00:12:20;14.40;99.90
22996;DHT22;11664;49.774;8.650;2023-05-10T00:14:45;14.30;99.90
22996;DHT22;11664;49.774;8.650;2023-05-10T00:17:11;14.30;99.90
22996;DHT22;11664;49.774;8.650;2023-05-10T00:19:36;14.30;99.90
22996;DHT22;11664;49.774;8.650;2023-05-10T00:22:02;14.20;99.90
22996;DHT22;11664;49.774;8.650;2023-05-10T00:24:27;14.20;99.90
22996;DHT22;11664;49.774;8.650;2023-05-10T00:26:53;14.20;99.90
22996;DHT22;11664;49.774;8.650;2023-05-10T00:29:18;14.20;99.90
22996;DHT22;11664;49.774;8.650;2023-05-10T00:31:44;14.10;99.90
22996;DHT22;11664;49.774;8.650;2023-05-10T00:34:10;14.10;99.90
22996;DHT22;11664;49.774;8.650;2023-05-10T00:36:36;14.10;99.90
22996;DHT22;11664;49.774;8.650;2023-05-10T00:39:01;14.10;99.90
22996;DHT22;11664;49.774;8.650;2023-05-10T00:41:28;14.10;99.90
22996;DHT22;11664;49.774;8.650;2023-05-10T00:43:54;14.10;99.90
22996;DHT22;11664;49.774;8.650;2023-05-10T00:46:20;14.00;99.90
22996;DHT22;11664;49.774;8.650;2023-05-10T00:48:46;14.10;99.90
22996;DHT22;11664;49.774;8.650;2023-05-10T00:51:13;14.00;99.90
22996;DHT22;11664;49.774;8.650;2023-05-10T00:53:38;14.10;99.90
22996;DHT22;11664;49.774;8.650;2023-05-10T00:56:04;14.00;99.90
22996;DHT22;11664;49.774;8.650;2023-05-10T00:58:30;14.00;99.90
22996;DHT22;11664;49.774;8.650;2023-05-10T01:00:56;14.00;99.90
22996;DHT22;11664;49.774;8.650;2023-05-10T01:03:23;14.00;99.90
22996;DHT22;11664;49.774;8.650;2023-05-10T01:05:49;14.00;99.90
22996;DHT22;11664;49.774;8.650;2023-05-10T01:08:15;14.00;99.90
22996;DHT22;11664;49.774;8.650;2023-05-10T01:10:42;14.00;99.90
22996;DHT22;11664;49.774;8.650;2023-05-10T01:13:08;13.90;99.90
22996;DHT22;11664;49.774;8.650;2023-05-10T01:15:34;14.00;99.90
22996;DHT22;11664;49.774;8.650;2023-05-10T01:18:00;13.90;99.90
22996;DHT22;11664;49.774;8.650;2023-05-10T01:20:27;13.90;99.90
22996;DHT22;11664;49.774;8.650;2023-05-10T01:23:16;13.90;99.90
22996;DHT22;11664;49.774;8.650;2023-05-10T01:34:16;13.80;99.90
22996;DHT22;11664;49.774;8.650;2023-05-10T01:36:50;13.80;99.90
22996;DHT22;11664;49.774;8.650;2023-05-10T01:39:23;13.80;99.90
22996;DHT22;11664;49.774;8.650;2023-05-10T01:42:01;13.80;99.90
22996;DHT22;11664;49.774;8.650;2023-05-10T01:47:38;13.70;99.90
22996;DHT22;11664;49.774;8.650;2023-05-10T01:50:10;13.70;99.90
22996;DHT22;11664;49.774;8.650;2023-05-10T01:52:42;13.70;99.90
22996;DHT22;11664;49.774;8.650;2023-05-10T01:55:13;13.70;99.90
22996;DHT22;11664;49.774;8.650;2023-05-10T01:57:39;13.70;99.90
22996;DHT22;11664;49.774;8.650;2023-05-10T02:00:07;13.70;99.90
22996;DHT22;11664;49.774;8.650;2023-05-10T02:02:36;13.70;99.90
22996;DHT22;11664;49.774;8.650;2023-05-10T02:05:04;13.70;99.90
22996;DHT22;11664;49.774;8.650;2023-05-10T02:07:32;13.70;99.90
22996;DHT22;11664;49.774;8.650;2023-05-10T02:09:59;13.70;99.90
22996;DHT22;11664;49.774;8.650;2023-05-10T02:12:26;13.70;99.90
22996;DHT22;11664;49.774;8.650;2023-05-10T02:14:54;13.70;99.90
22996;DHT22;11664;49.774;8.650;2023-05-10T02:17:21;13.60;99.90
22996;DHT22;11664;49.774;8.650;2023-05-10T02:19:48;13.70;99.90
22996;DHT22;11664;49.774;8.650;2023-05-10T02:22:15;13.70;99.90
22996;DHT22;11664;49.774;8.650;2023-05-10T02:24:41;13.70;99.90
22996;DHT22;11664;49.774;8.650;2023-05-10T02:27:08;13.70;99.90
22996;DHT22;11664;49.774;8.650;2023-05-10T02:29:35;13.60;99.90
22996;DHT22;11664;49.774;8.650;2023-05-10T02:32:02;13.60;99.90
22996;DHT22;11664;49.774;8.650;2023-05-10T02:34:28;13.60;99.90
22996;DHT22;11664;49.774;8.650;2023-05-10T02:36:55;13.60;99.90
22996;DHT22;11664;49.774;8.650;2023-05-10T02:39:21;13.60;99.90
22996;DHT22;11664;49.774;8.650;2023-05-10T02:41:49;13.60;99.90
22996;DHT22;11664;49.774;8.650;2023-05-10T02:44:18;13.60;99.90
22996;DHT22;11664;49.774;8.650;2023-05-10T02:46:44;13.60;99.90
22996;DHT22;11664;49.774;8.650;2023-05-10T02:49:10;13.60;99.90
22996;DHT22;11664;49.774;8.650;2023-05-10T02:51:37;13.50;99.90
22996;DHT22;11664;49.774;8.650;2023-05-10T02:54:18;13.60;99.90
22996;DHT22;11664;49.774;8.650;2023-05-10T02:56:51;13.60;99.90
22996;DHT22;11664;49.774;8.650;2023-05-10T02:59:18;13.60;99.90
22996;DHT22;11664;49.774;8.650;2023-05-10T03:01:44;13.50;99.90
22996;DHT22;11664;49.774;8.650;2023-05-10T03:04:10;13.50;99.90
22996;DHT22;11664;49.774;8.650;2023-05-10T03:06:35;13.50;99.90
22996;DHT22;11664;49.774;8.650;2023-05-10T03:09:02;13.50;99.90
22996;DHT22;11664;49.774;8.650;2023-05-10T03:16:56;13.50;99.90
22996;DHT22;11664;49.774;8.650;2023-05-10T03:19:30;13.50;99.90
22996;DHT22;11664;49.774;8.650;2023-05-10T03:21:59;13.40;99.90
22996;DHT22;11664;49.774;8.650;2023-05-10T03:24:30;13.50;99.90
22996;DHT22;11664;49.774;8.650;2023-05-10T03:26:59;13.50;99.90
22996;DHT22;11664;49.774;8.650;2023-05-10T03:29:28;13.40;99.90
22996;DHT22;11664;49.774;8.650;2023-05-10T03:31:54;13.40;99.90
22996;DHT22;11664;49.774;8.650;2023-05-10T03:34:24;13.50;99.90
22996;DHT22;11664;49.774;8.650;2023-05-10T03:36:49;13.50;99.90
22996;DHT22;11664;49.774;8.650;2023-05-10T03:39:15;13.50;99.90
22996;DHT22;11664;49.774;8.650;2023-05-10T03:41:40;13.40;99.90
22996;DHT22;11664;49.774;8.650;2023-05-10T03:44:06;13.40;99.90
22996;DHT22;11664;49.774;8.650;2023-05-10T03:46:32;13.50;99.90
22996;DHT22;11664;49.774;8.650;2023-05-10T03:48:57;13.40;99.90
22996;DHT22;11664;49.774;8.650;2023-05-10T03:51:23;13.40;99.90
22996;DHT22;11664;49.774;8.650;2023-05-10T03:53:55;13.40;99.90
22996;DHT22;11664;49.774;8.650;2023-05-10T03:56:21;13.40;99.90
22996;DHT22;11664;49.774;8.650;2023-05-10T03:58:47;13.40;99.90
22996;DHT22;11664;49.774;8.650;2023-05-10T04:01:12;13.40;99.90
22996;DHT22;11664;49.774;8.650;2023-05-10T04:03:38;13.40;99.90
22996;DHT22;11664;49.774;8.650;2023-05-10T04:06:04;13.40;99.90
22996;DHT22;11664;49.774;8.650;2023-05-10T04:08:30;13.40;99.90
22996;DHT22;11664;49.774;8.650;2023-05-10T04:13:32;13.40;99.90
22996;DHT22;11664;49.774;8.650;2023-05-10T04:15:58;13.40;99.90
22996;DHT22;11664;49.774;8.650;2023-05-10T04:18:23;13.40;99.90
22996;DHT22;11664;49.774;8.650;2023-05-10T04:20:49;13.40;99.90
22996;DHT22;11664;49.774;8.650;2023-05-10T04:23:14;13.40;99.90
22996;DHT22;11664;49.774;8.650;2023-05-10T04:25:42;13.40;99.90
22996;DHT22;11664;49.774;8.650;2023-05-10T04:28:07;13.50;99.90
22996;DHT22;11664;49.774;8.650;2023-05-10T04:30:33;13.50;99.90
22996;DHT22;11664;49.774;8.650;2023-05-10T04:32:58;13.50;99.90
22996;DHT22;11664;49.774;8.650;2023-05-10T04:35:24;13.50;99.90
22996;DHT22;11664;49.774;8.650;2023-05-10T04:37:49;13.50;99.90
22996;DHT22;11664;49.774;8.650;2023-05-10T04:40:15;13.50;99.90
22996;DHT22;11664;49.774;8.650;2023-05-10T04:42:40;13.50;99.90
22996;DHT22;11664;49.774;8.650;2023-05-10T04:45:07;13.50;99.90
22996;DHT22;11664;49.774;8.650;2023-05-10T04:47:32;13.60;99.90
22996;DHT22;11664;49.774;8.650;2023-05-10T04:49:58;13.60;99.90
22996;DHT22;11664;49.774;8.650;2023-05-10T04:52:24;13.60;99.90
22996;DHT22;11664;49.774;8.650;2023-05-10T04:54:49;13.60;99.90
22996;DHT22;11664;49.774;8.650;2023-05-10T04:57:16;13.60;99.90
22996;DHT22;11664;49.774;8.650;2023-05-10T04:59:41;13.60;99.90
22996;DHT22;11664;49.774;8.650;2023-05-10T05:02:07;13.60;99.90
22996;DHT22;11664;49.774;8.650;2023-05-10T05:04:33;13.60;99.90
22996;DHT22;11664;49.774;8.650;2023-05-10T05:06:59;13.60;99.90
22996;DHT22;11664;49.774;8.650;2023-05-10T05:09:24;13.60;99.90
22996;DHT22;11664;49.774;8.650;2023-05-10T05:11:50;13.60;99.90
22996;DHT22;11664;49.774;8.650;2023-05-10T05:14:15;13.60;99.90
22996;DHT22;11664;49.774;8.650;2023-05-10T05:16:41;13.60;99.90
22996;DHT22;11664;49.774;8.650;2023-05-10T05:19:06;13.60;99.90
22996;DHT22;11664;49.774;8.650;2023-05-10T05:21:32;13.60;99.90
22996;DHT22;11664;49.774;8.650;2023-05-10T05:23:58;13.60;99.90
22996;DHT22;11664;49.774;8.650;2023-05-10T05:26:23;13.60;99.90
22996;DHT22;11664;49.774;8.650;2023-05-10T05:28:49;13.60;99.90
22996;DHT22;11664;49.774;8.650;2023-05-10T05:31:17;13.70;99.90
22996;DHT22;11664;49.774;8.650;2023-05-10T05:33:43;13.70;99.90
22996;DHT22;11664;49.774;8.650;2023-05-10T05:36:08;13.70;99.90
22996;DHT22;11664;49.774;8.650;2023-05-10T05:38:34;13.70;99.90
22996;DHT22;11664;49.774;8.650;2023-05-10T05:41:00;13.80;99.90
22996;DHT22;11664;49.774;8.650;2023-05-10T05:43:25;13.80;99.90
22996;DHT22;11664;49.774;8.650;2023-05-10T05:45:52;13.80;99.90
22996;DHT22;11664;49.774;8.650;2023-05-10T05:48:19;13.90;99.90
22996;DHT22;11664;49.774;8.650;2023-05-10T05:50:44;13.90;99.90
22996;DHT22;11664;49.774;8.650;2023-05-10T05:53:11;14.00;99.90
22996;DHT22;11664;49.774;8.650;2023-05-10T05:55:36;14.00;99.90
22996;DHT22;11664;49.774;8.650;2023-05-10T05:58:02;14.10;99.90
22996;DHT22;11664;49.774;8.650;2023-05-10T06:00:27;14.10;99.90
22996;DHT22;11664;49.774;8.650;2023-05-10T06:02:53;14.20;99.90
22996;DHT22;11664;49.774;8.650;2023-05-10T06:05:18;14.20;99.90
22996;DHT22;11664;49.774;8.650;2023-05-10T06:07:45;14.20;99.90
22996;DHT22;11664;49.774;8.650;2023-05-10T06:10:11;14.20;99.90
22996;DHT22;11664;49.774;8.650;2023-05-10T06:12:36;14.20;99.90
22996;DHT22;11664;49.774;8.650;2023-05-10T06:15:03;14.20;99.90
22996;DHT22;11664;49.774;8.650;2023-05-10T06:17:28;14.30;99.90
22996;DHT22;11664;49.774;8.650;2023-05-10T06:19:54;14.30;99.90
22996;DHT22;11664;49.774;8.650;2023-05-10T06:22:20;14.40;99.90
22996;DHT22;11664;49.774;8.650;2023-05-10T06:24:48;14.40;99.90
22996;DHT22;11664;49.774;8.650;2023-05-10T06:27:13;14.50;99.90
22996;DHT22;11664;49.774;8.650;2023-05-10T06:29:39;14.60;99.90
22996;DHT22;11664;49.774;8.650;2023-05-10T06:32:04;14.60;99.90
22996;DHT22;11664;49.774;8.650;2023-05-10T06:34:30;14.60;99.90
22996;DHT22;11664;49.774;8.650;2023-05-10T06:36:55;14.70;99.90
22996;DHT22;11664;49.774;8.650;2023-05-10T06:39:21;14.60;99.90
22996;DHT22;11664;49.774;8.650;2023-05-10T06:41:46;14.70;99.90
22996;DHT22;11664;49.774;8.650;2023-05-10T06:44:12;14.70;99.90
22996;DHT22;11664;49.774;8.650;2023-05-10T06:46:38;14.70;99.90
22996;DHT22;11664;49.774;8.650;2023-05-10T06:49:03;14.80;99.90
22996;DHT22;11664;49.774;8.650;2023-05-10T06:51:29;14.90;99.90
22996;DHT22;11664;49.774;8.650;2023-05-10T06:53:56;14.90;99.90
22996;DHT22;11664;49.774;8.650;2023-05-10T06:56:21;15.00;99.90
22996;DHT22;11664;49.774;8.650;2023-05-10T06:58:47;15.00;99.90
22996;DHT22;11664;49.774;8.650;2023-05-10T07:01:13;15.10;99.90
22996;DHT22;11664;49.774;8.650;2023-05-10T07:03:39;15.20;99.90
22996;DHT22;11664;49.774;8.650;2023-05-10T07:06:05;15.20;99.90
22996;DHT22;11664;49.774;8.650;2023-05-10T07:08:32;15.30;99.90
22996;DHT22;11664;49.774;8.650;2023-05-10T07:11:02;15.20;99.90
22996;DHT22;11664;49.774;8.650;2023-05-10T07:13:29;15.30;99.90
22996;DHT22;11664;49.774;8.650;2023-05-10T07:15:55;15.30;99.90
22996;DHT22;11664;49.774;8.650;2023-05-10T07:18:20;15.30;99.90
22996;DHT22;11664;49.774;8.650;2023-05-10T07:20:46;15.40;99.90
22996;DHT22;11664;49.774;8.650;2023-05-10T07:23:11;15.40;99.90
22996;DHT22;11664;49.774;8.650;2023-05-10T07:25:37;15.50;99.90
22996;DHT22;11664;49.774;8.650;2023-05-10T07:28:03;15.60;99.90
22996;DHT22;11664;49.774;8.650;2023-05-10T07:30:28;15.60;99.90
22996;DHT22;11664;49.774;8.650;2023-05-10T07:32:54;15.70;99.90
22996;DHT22;11664;49.774;8.650;2023-05-10T07:35:19;15.60;99.90
22996;DHT22;11664;49.774;8.650;2023-05-10T07:37:45;15.70;99.90
22996;DHT22;11664;49.774;8.650;2023-05-10T07:40:10;15.70;99.90
22996;DHT22;11664;49.774;8.650;2023-05-10T07:42:36;15.70;99.90
22996;DHT22;11664;49.774;8.650;2023-05-10T07:45:02;15.70;99.90
22996;DHT22;11664;49.774;8.650;2023-05-10T07:47:27;15.80;99.90
22996;DHT22;11664;49.774;8.650;2023-05-10T07:49:53;15.80;99.90
22996;DHT22;11664;49.774;8.650;2023-05-10T07:52:18;15.80;99.90
22996;DHT22;11664;49.774;8.650;2023-05-10T07:54:44;15.70;99.90
22996;DHT22;11664;49.774;8.650;2023-05-10T07:57:10;15.70;99.90
22996;DHT22;11664;49.774;8.650;2023-05-10T07:59:35;15.70;99.90
22996;DHT22;11664;49.774;8.650;2023-05-10T08:02:01;15.60;99.90
22996;DHT22;11664;49.774;8.650;2023-05-10T08:04:27;15.50;99.90
22996;DHT22;11664;49.774;8.650;2023-05-10T08:06:52;15.40;99.90
22996;DHT22;11664;49.774;8.650;2023-05-10T08:09:18;15.30;99.90
22996;DHT22;11664;49.774;8.650;2023-05-10T08:11:49;15.20;99.90
22996;DHT22;11664;49.774;8.650;2023-05-10T08:14:14;15.20;99.90
22996;DHT22;11664;49.774;8.650;2023-05-10T08:16:41;15.30;99.90
22996;DHT22;11664;49.774;8.650;2023-05-10T08:19:07;15.30;99.90
22996;DHT22;11664;49.774;8.650;2023-05-10T08:21:32;15.40;99.90
22996;DHT22;11664;49.774;8.650;2023-05-10T08:23:58;15.50;99.90
22996;DHT22;11664;49.774;8.650;2023-05-10T08:26:23;15.50;99.90
22996;DHT22;11664;49.774;8.650;2023-05-10T08:28:49;15.50;99.90
22996;DHT22;11664;49.774;8.650;2023-05-10T08:31:15;15.60;99.90
22996;DHT22;11664;49.774;8.650;2023-05-10T08:33:41;15.70;99.90
22996;DHT22;11664;49.774;8.650;2023-05-10T08:36:06;15.70;99.90
22996;DHT22;11664;49.774;8.650;2023-05-10T08:38:32;15.90;99.90
22996;DHT22;11664;49.774;8.650;2023-05-10T08:40:58;16.00;99.90
22996;DHT22;11664;49.774;8.650;2023-05-10T08:43:27;16.20;99.90
22996;DHT22;11664;49.774;8.650;2023-05-10T08:45:55;16.30;99.90
22996;DHT22;11664;49.774;8.650;2023-05-10T08:48:24;16.60;99.90
22996;DHT22;11664;49.774;8.650;2023-05-10T08:50:52;16.70;99.90
22996;DHT22;11664;49.774;8.650;2023-05-10T08:53:19;16.70;99.90
22996;DHT22;11664;49.774;8.650;2023-05-10T08:55:45;16.80;99.90
22996;DHT22;11664;49.774;8.650;2023-05-10T08:58:11;16.90;99.90
22996;DHT22;11664;49.774;8.650;2023-05-10T09:00:37;17.00;99.90
22996;DHT22;11664;49.774;8.650;2023-05-10T09:03:04;17.10;99.90
22996;DHT22;11664;49.774;8.650;2023-05-10T09:05:30;17.20;99.90
22996;DHT22;11664;49.774;8.650;2023-05-10T09:07:56;17.10;99.90
22996;DHT22;11664;49.774;8.650;2023-05-10T09:10:22;17.00;99.90
22996;DHT22;11664;49.774;8.650;2023-05-10T09:12:51;17.00;99.90
22996;DHT22;11664;49.774;8.650;2023-05-10T09:15:17;17.00;99.90
22996;DHT22;11664;49.774;8.650;2023-05-10T09:17:44;17.10;99.90
22996;DHT22;11664;49.774;8.650;2023-05-10T09:20:10;17.20;99.90
22996;DHT22;11664;49.774;8.650;2023-05-10T09:22:35;17.20;99.90
22996;DHT22;11664;49.774;8.650;2023-05-10T09:25:05;17.30;99.90
22996;DHT22;11664;49.774;8.650;2023-05-10T09:27:30;17.50;99.90
22996;DHT22;11664;49.774;8.650;2023-05-10T09:29:56;17.60;99.90
22996;DHT22;11664;49.774;8.650;2023-05-10T09:32:39;17.70;99.90
22996;DHT22;11664;49.774;8.650;2023-05-10T09:35:16;17.70;99.90
22996;DHT22;11664;49.774;8.650;2023-05-10T09:37:44;17.60;99.90
22996;DHT22;11664;49.774;8.650;2023-05-10T09:40:13;17.40;99.90
22996;DHT22;11664;49.774;8.650;2023-05-10T09:42:41;17.20;99.90
22996;DHT22;11664;49.774;8.650;2023-05-10T09:45:07;17.10;99.90
22996;DHT22;11664;49.774;8.650;2023-05-10T09:47:36;17.00;99.90
22996;DHT22;11664;49.774;8.650;2023-05-10T09:50:03;17.00;99.90
22996;DHT22;11664;49.774;8.650;2023-05-10T09:55:46;17.00;99.90
22996;DHT22;11664;49.774;8.650;2023-05-10T09:58:12;17.00;99.90
22996;DHT22;11664;49.774;8.650;2023-05-10T10:00:40;17.20;99.90
22996;DHT22;11664;49.774;8.650;2023-05-10T10:03:07;17.30;99.90
22996;DHT22;11664;49.774;8.650;2023-05-10T10:05:40;17.60;99.90
22996;DHT22;11664;49.774;8.650;2023-05-10T10:08:06;17.90;99.90
22996;DHT22;11664;49.774;8.650;2023-05-10T10:10:32;18.00;99.90
22996;DHT22;11664;49.774;8.650;2023-05-10T10:12:59;18.00;99.90
22996;DHT22;11664;49.774;8.650;2023-05-10T10:15:25;17.90;99.90
22996;DHT22;11664;49.774;8.650;2023-05-10T10:17:51;17.70;99.90
22996;DHT22;11664;49.774;8.650;2023-05-10T10:20:20;17.60;99.90
22996;DHT22;11664;49.774;8.650;2023-05-10T10:22:46;17.70;99.90
22996;DHT22;11664;49.774;8.650;2023-05-10T10:25:13;18.00;99.90
22996;DHT22;11664;49.774;8.650;2023-05-10T10:35:32;18.60;99.90
22996;DHT22;11664;49.774;8.650;2023-05-10T10:37:58;18.50;99.90
22996;DHT22;11664;49.774;8.650;2023-05-10T10:40:27;18.50;99.90
22996;DHT22;11664;49.774;8.650;2023-05-10T10:42:54;18.30;99.90
22996;DHT22;11664;49.774;8.650;2023-05-10T10:45:20;18.10;99.90
22996;DHT22;11664;49.774;8.650;2023-05-10T10:47:46;18.00;99.90
22996;DHT22;11664;49.774;8.650;2023-05-10T10:50:12;17.90;99.90
22996;DHT22;11664;49.774;8.650;2023-05-10T10:52:42;17.80;99.90
22996;DHT22;11664;49.774;8.650;2023-05-10T10:55:18;17.70;99.90
22996;DHT22;11664;49.774;8.650;2023-05-10T10:57:55;17.70;99.90
22996;DHT22;11664;49.774;8.650;2023-05-10T11:00:26;17.60;99.90
22996;DHT22;11664;49.774;8.650;2023-05-10T11:03:04;17.70;99.90
22996;DHT22;11664;49.774;8.650;2023-05-10T11:13:30;18.10;99.90
22996;DHT22;11664;49.774;8.650;2023-05-10T11:15:56;18.20;99.90
22996;DHT22;11664;49.774;8.650;2023-05-10T11:18:27;18.40;99.90
22996;DHT22;11664;49.774;8.650;2023-05-10T11:20:59;18.50;99.90
22996;DHT22;11664;49.774;8.650;2023-05-10T11:23:31;18.60;99.90
22996;DHT22;11664;49.774;8.650;2023-05-10T11:25:58;18.60;99.90
22996;DHT22;11664;49.774;8.650;2023-05-10T11:28:23;18.50;99.90
22996;DHT22;11664;49.774;8.650;2023-05-10T11:30:51;18.70;99.90
22996;DHT22;11664;49.774;8.650;2023-05-10T11:33:18;19.00;99.90
22996;DHT22;11664;49.774;8.650;2023-05-10T11:35:45;19.20;99.90
22996;DHT22;11664;49.774;8.650;2023-05-10T11:38:11;19.10;99.90
22996;DHT22;11664;49.774;8.650;2023-05-10T11:40:38;18.90;99.90
22996;DHT22;11664;49.774;8.650;2023-05-10T11:43:04;18.90;99.90
22996;DHT22;11664;49.774;8.650;2023-05-10T11:45:35;19.00;99.90
22996;DHT22;11664;49.774;8.650;2023-05-10T11:48:01;19.10;99.90
22996;DHT22;11664;49.774;8.650;2023-05-10T11:50:28;19.20;99.90
22996;DHT22;11664;49.774;8.650;2023-05-10T11:52:54;19.40;99.90
22996;DHT22;11664;49.774;8.650;2023-05-10T11:55:20;19.50;99.90
22996;DHT22;11664;49.774;8.650;2023-05-10T11:57:46;19.20;99.90
22996;DHT22;11664;49.774;8.650;2023-05-10T12:00:15;19.00;99.90
22996;DHT22;11664;49.774;8.650;2023-05-10T12:02:40;19.00;99.90
22996;DHT22;11664;49.774;8.650;2023-05-10T12:05:06;18.90;99.90
22996;DHT22;11664;49.774;8.650;2023-05-10T12:07:33;19.00;99.90
22996;DHT22;11664;49.774;8.650;2023-05-10T12:10:12;19.10;99.90
22996;DHT22;11664;49.774;8.650;2023-05-10T12:12:44;19.40;99.90
22996;DHT22;11664;49.774;8.650;2023-05-10T12:15:30;19.40;99.90
22996;DHT22;11664;49.774;8.650;2023-05-10T12:17:56;19.50;99.90
22996;DHT22;11664;49.774;8.650;2023-05-10T12:20:23;19.70;99.90
22996;DHT22;11664;49.774;8.650;2023-05-10T12:22:56;19.80;99.90
22996;DHT22;11664;49.774;8.650;2023-05-10T12:25:23;20.00;99.90
22996;DHT22;11664;49.774;8.650;2023-05-10T12:27:54;20.20;99.90
22996;DHT22;11664;49.774;8.650;2023-05-10T12:30:21;20.10;99.90
22996;DHT22;11664;49.774;8.650;2023-05-10T12:32:47;20.10;99.90
22996;DHT22;11664;49.774;8.650;2023-05-10T12:35:13;20.00;99.90
22996;DHT22;11664;49.774;8.650;2023-05-10T12:37:38;19.80;99.90
22996;DHT22;11664;49.774;8.650;2023-05-10T12:40:09;19.80;99.90
22996;DHT22;11664;49.774;8.650;2023-05-10T12:42:36;19.80;99.90
22996;DHT22;11664;49.774;8.650;2023-05-10T12:45:03;19.70;99.90
22996;DHT22;11664;49.774;8.650;2023-05-10T12:47:29;19.70;99.90
22996;DHT22;11664;49.774;8.650;2023-05-10T12:49:54;19.60;99.90
22996;DHT22;11664;49.774;8.650;2023-05-10T12:52:20;19.70;99.90
22996;DHT22;11664;49.774;8.650;2023-05-10T12:54:46;19.50;99.90
22996;DHT22;11664;49.774;8.650;2023-05-10T12:57:12;19.40;99.90
22996;DHT22;11664;49.774;8.650;2023-05-10T12:59:38;19.20;99.90
22996;DHT22;11664;49.774;8.650;2023-05-10T13:02:04;19.10;99.90
22996;DHT22;11664;49.774;8.650;2023-05-10T13:04:29;19.10;99.90
22996;DHT22;11664;49.774;8.650;2023-05-10T13:06:55;19.00;99.90
22996;DHT22;11664;49.774;8.650;2023-05-10T13:09:27;19.00;99.90
22996;DHT22;11664;49.774;8.650;2023-05-10T13:11:54;19.10;99.90
22996;DHT22;11664;49.774;8.650;2023-05-10T13:14:20;19.60;99.90
22996;DHT22;11664;49.774;8.650;2023-05-10T13:16:46;19.70;99.90
22996;DHT22;11664;49.774;8.650;2023-05-10T13:19:15;19.70;99.90
22996;DHT22;11664;49.774;8.650;2023-05-10T13:21:41;19.60;99.90
22996;DHT22;11664;49.774;8.650;2023-05-10T13:24:07;19.90;99.90
22996;DHT22;11664;49.774;8.650;2023-05-10T13:26:33;20.20;99.90
22996;DHT22;11664;49.774;8.650;2023-05-10T13:28:59;20.40;99.90
22996;DHT22;11664;49.774;8.650;2023-05-10T13:31:24;20.50;99.90
22996;DHT22;11664;49.774;8.650;2023-05-10T13:33:50;20.80;99.90
22996;DHT22;11664;49.774;8.650;2023-05-10T13:36:16;21.10;99.90
22996;DHT22;11664;49.774;8.650;2023-05-10T13:38:41;21.30;99.90
22996;DHT22;11664;49.774;8.650;2023-05-10T13:41:07;21.10;99.90
22996;DHT22;11664;49.774;8.650;2023-05-10T13:43:32;21.00;99.90
22996;DHT22;11664;49.774;8.650;2023-05-10T13:45:58;20.90;99.90
22996;DHT22;11664;49.774;8.650;2023-05-10T13:48:23;21.00;99.90
22996;DHT22;11664;49.774;8.650;2023-05-10T13:50:49;21.00;99.90
22996;DHT22;11664;49.774;8.650;2023-05-10T13:53:14;21.10;99.90
22996;DHT22;11664;49.774;8.650;2023-05-10T13:55:41;21.20;99.90
22996;DHT22;11664;49.774;8.650;2023-05-10T13:58:06;21.40;99.90
22996;DHT22;11664;49.774;8.650;2023-05-10T14:00:32;21.40;98.40
22996;DHT22;11664;49.774;8.650;2023-05-10T14:02:57;21.30;99.70
22996;DHT22;11664;49.774;8.650;2023-05-10T14:05:23;21.50;98.70
22996;DHT22;11664;49.774;8.650;2023-05-10T14:07:49;21.50;98.30
22996;DHT22;11664;49.774;8.650;2023-05-10T14:10:15;21.50;99.90
22996;DHT22;11664;49.774;8.650;2023-05-10T14:12:41;21.60;99.90
22996;DHT22;11664;49.774;8.650;2023-05-10T14:15:07;21.50;98.10
22996;DHT22;11664;49.774;8.650;2023-05-10T14:17:32;21.30;99.70
22996;DHT22;11664;49.774;8.650;2023-05-10T14:19:58;21.20;99.20
22996;DHT22;11664;49.774;8.650;2023-05-10T14:22:23;21.30;99.60
22996;DHT22;11664;49.774;8.650;2023-05-10T14:24:49;21.10;98.80
22996;DHT22;11664;49.774;8.650;2023-05-10T14:27:15;21.20;99.70
22996;DHT22;11664;49.774;8.650;2023-05-10T14:29:41;21.20;97.40
22996;DHT22;11664;49.774;8.650;2023-05-10T14:32:07;21.30;99.90
22996;DHT22;11664;49.774;8.650;2023-05-10T14:34:33;21.20;99.20
22996;DHT22;11664;49.774;8.650;2023-05-10T14:36:58;21.10;99.90
22996;DHT22;11664;49.774;8.650;2023-05-10T14:39:24;20.90;99.90
22996;DHT22;11664;49.774;8.650;2023-05-10T14:41:49;20.60;99.90
22996;DHT22;11664;49.774;8.650;2023-05-10T14:44:16;20.40;99.90
22996;DHT22;11664;49.774;8.650;2023-05-10T14:46:42;20.40;99.90
22996;DHT22;11664;49.774;8.650;2023-05-10T14:49:07;20.20;99.90
22996;DHT22;11664;49.774;8.650;2023-05-10T14:51:33;20.20;99.90
22996;DHT22;11664;49.774;8.650;2023-05-10T14:53:59;20.00;99.90
22996;DHT22;11664;49.774;8.650;2023-05-10T14:56:24;19.90;99.90
22996;DHT22;11664;49.774;8.650;2023-05-10T14:58:51;19.80;99.90
22996;DHT22;11664;49.774;8.650;2023-05-10T15:01:16;19.60;99.90
22996;DHT22;11664;49.774;8.650;2023-05-10T15:03:42;19.50;99.90
22996;DHT22;11664;49.774;8.650;2023-05-10T15:06:08;19.40;99.90
22996;DHT22;11664;49.774;8.650;2023-05-10T15:08:34;19.30;99.90
22996;DHT22;11664;49.774;8.650;2023-05-10T15:11:00;19.30;99.90
22996;DHT22;11664;49.774;8.650;2023-05-10T15:13:25;19.30;99.90
22996;DHT22;11664;49.774;8.650;2023-05-10T15:15:51;19.50;99.90
22996;DHT22;11664;49.774;8.650;2023-05-10T15:18:16;19.70;99.90
22996;DHT22;11664;49.774;8.650;2023-05-10T15:20:42;19.90;99.90
22996;DHT22;11664;49.774;8.650;2023-05-10T15:23:07;20.00;99.90
22996;DHT22;11664;49.774;8.650;2023-05-10T15:25:33;20.10;99.90
22996;DHT22;11664;49.774;8.650;2023-05-10T15:28:03;20.00;99.90
22996;DHT22;11664;49.774;8.650;2023-05-10T15:30:28;19.90;99.90
22996;DHT22;11664;49.774;8.650;2023-05-10T15:32:54;19.80;99.90
22996;DHT22;11664;49.774;8.650;2023-05-10T15:35:20;19.80;99.90
22996;DHT22;11664;49.774;8.650;2023-05-10T15:37:47;19.80;99.90
22996;DHT22;11664;49.774;8.650;2023-05-10T15:40:13;19.80;99.90
22996;DHT22;11664;49.774;8.650;2023-05-10T15:42:38;19.70;99.90
22996;DHT22;11664;49.774;8.650;2023-05-10T15:45:04;19.60;99.90
22996;DHT22;11664;49.774;8.650;2023-05-10T15:47:30;19.60;99.90
22996;DHT22;11664;49.774;8.650;2023-05-10T15:49:56;19.50;99.90
22996;DHT22;11664;49.774;8.650;2023-05-10T15:52:21;19.40;99.90
22996;DHT22;11664;49.774;8.650;2023-05-10T15:54:48;19.50;99.90
22996;DHT22;11664;49.774;8.650;2023-05-10T15:57:40;19.50;99.90
22996;DHT22;11664;49.774;8.650;2023-05-10T16:00:07;19.40;99.90
22996;DHT22;11664;49.774;8.650;2023-05-10T16:02:33;19.50;99.90
22996;DHT22;11664;49.774;8.650;2023-05-10T16:04:59;19.50;99.90